Terminal Aerodrome Forecast
Issued by NWS Goodland, KS

Home | Current Version | Previous Version | Text Only | Print | Product List | Glossary On
Versions: 1 2 3 4 5 6 7 8 9 10 11 12 13 14 15 16
000
FTUS43 KGLD 251827 AAA
TAFGLD
TAF AMD
KGLD 251827Z 2518/2618 02018G25KT 6SM -RA BR SCT025 BKN035
      TEMPO 2518/2520 4SM -RASN BR SCT007 BKN015
     FM252200 01017G24KT P6SM BKN060
     FM260000 01013KT P6SM FEW070 SCT120 SCT250
     FM260100 36010KT P6SM FEW070 SCT120 SCT250
     FM260500 31005KT P6SM SKC
     FM260900 27005KT P6SM FEW080 FEW150
     FM261400 23009KT P6SM FEW080 SCT130 SCT200
     FM261700 27014G21KT P6SM FEW080 FEW130 SCT200=

USA.gov is the U.S. government's official web portal to all federal, state and local government web resources and services.